Time;durP1;ratioP1;P1;durP2;ratioP2;P2;SDS_P1;SDS_P2;PMS_P1;PMS_P2;Temp;Humidity;BMP_temperature;BMP_pressure;BME280_temperature;BME280_humidity;BME280_pressure;Samples;Min_cycle;Max_cycle;Signal;HPM_P1;HPM_P2
2023/01/15 00:00:48;;;;;;;18.27;6.32;;;;;;;6.84;73.73;101485.38;5071320;28;20123;-87
2023/01/15 00:03:14;;;;;;;11.80;6.00;;;;;;;6.96;73.41;101495.44;5072645;28;20191;-87
2023/01/15 00:05:39;;;;;;;14.10;4.60;;;;;;;6.94;73.37;101466.09;5071431;28;20565;-88
2023/01/15 00:08:05;;;;;;;10.48;4.00;;;;;;;7.10;73.09;101488.41;5070533;28;20409;-88
2023/01/15 00:10:30;;;;;;;14.55;4.68;;;;;;;7.11;73.18;101483.94;5070288;28;20045;-89
2023/01/15 00:12:56;;;;;;;10.75;5.15;;;;;;;7.20;72.61;101487.91;5057196;28;20036;-88
2023/01/15 00:15:21;;;;;;;7.97;4.85;;;;;;;7.28;72.78;101483.88;5069950;28;20044;-89
2023/01/15 00:17:46;;;;;;;8.23;4.90;;;;;;;7.36;72.47;101480.78;5069036;28;20040;-89
2023/01/15 00:20:12;;;;;;;25.65;6.10;;;;;;;7.33;72.15;101473.81;5052287;28;20488;-87
2023/01/15 00:22:38;;;;;;;12.32;5.57;;;;;;;7.37;71.74;101464.63;5069281;28;20029;-89
2023/01/15 00:27:48;;;;;;;7.80;4.57;;;;;;;7.42;71.64;101459.91;5069207;28;20043;-88
2023/01/15 00:30:15;;;;;;;5.38;3.50;;;;;;;7.59;70.71;101481.25;5069024;28;20610;-89
2023/01/15 00:32:42;;;;;;;8.02;4.53;;;;;;;7.44;70.74;101460.69;5072997;28;20130;-88
2023/01/15 00:35:21;;;;;;;15.38;5.70;;;;;;;7.55;70.82;101490.38;5092134;28;20028;-89
2023/01/15 00:37:47;;;;;;;10.90;5.10;;;;;;;7.47;71.70;101470.34;5068315;28;20031;-90
2023/01/15 00:40:13;;;;;;;11.30;5.55;;;;;;;7.52;71.75;101479.84;5051941;28;20037;-88
2023/01/15 00:42:39;;;;;;;15.13;6.80;;;;;;;7.58;72.00;101484.88;5068429;28;20045;-89
2023/01/15 00:45:09;;;;;;;9.15;5.45;;;;;;;7.61;71.96;101475.81;5069076;28;20051;-88
2023/01/15 00:47:43;;;;;;;26.38;7.35;;;;;;;7.47;71.63;101476.56;5068564;28;20047;-89
2023/01/15 00:50:11;;;;;;;12.35;5.72;;;;;;;7.47;72.08;101476.56;5051517;28;20036;-89
2023/01/15 00:52:37;;;;;;;14.70;5.80;;;;;;;7.45;71.93;101486.50;5068135;28;20059;-89
2023/01/15 00:55:04;;;;;;;13.82;6.38;;;;;;;7.41;71.62;101482.28;5068312;28;20029;-88
2023/01/15 00:57:30;;;;;;;14.90;6.38;;;;;;;7.35;71.84;101481.72;5067915;28;20135;-89
2023/01/15 00:59:55;;;;;;;12.68;7.00;;;;;;;7.30;71.96;101471.28;5051436;28;20531;-89
2023/01/15 01:02:21;;;;;;;14.63;6.35;;;;;;;7.41;72.26;101476.03;5051430;28;20471;-87
2023/01/15 01:04:46;;;;;;;12.50;5.80;;;;;;;7.48;71.78;101478.31;5068252;28;20407;-88
2023/01/15 01:07:13;;;;;;;7.90;5.20;;;;;;;7.47;71.39;101479.25;5068141;28;20047;-87
2023/01/15 01:09:38;;;;;;;7.03;4.78;;;;;;;7.40;70.96;101469.81;5078466;28;20040;-87
2023/01/15 01:12:04;;;;;;;7.35;4.45;;;;;;;6.99;71.51;101453.34;5095363;28;20051;-88
2023/01/15 01:14:30;;;;;;;9.20;4.80;;;;;;;7.09;71.26;101456.41;5091471;28;20028;-87
2023/01/15 01:16:56;;;;;;;9.90;4.88;;;;;;;7.18;71.68;101463.94;5075391;28;20027;-89
2023/01/15 01:19:23;;;;;;;6.40;3.53;;;;;;;7.18;71.69;101447.88;5094780;28;20024;-88
2023/01/15 01:21:50;;;;;;;19.60;6.25;;;;;;;7.39;71.64;101470.78;5094413;28;20559;-87
2023/01/15 01:24:18;;;;;;;7.53;3.67;;;;;;;7.32;71.37;101457.81;5103400;28;20032;-88
2023/01/15 01:26:44;;;;;;;5.65;3.17;;;;;;;7.31;71.07;101464.13;5082706;28;20067;-89
2023/01/15 01:29:18;;;;;;;10.30;3.65;;;;;;;7.29;71.49;101466.88;5073281;28;20047;-87
2023/01/15 01:31:44;;;;;;;13.65;5.72;;;;;;;7.01;71.66;101437.22;5091537;28;20050;-88
2023/01/15 01:34:11;;;;;;;6.78;3.83;;;;;;;7.03;72.07;101456.75;5072964;28;20487;-89
2023/01/15 01:36:39;;;;;;;5.72;3.00;;;;;;;7.10;72.36;101474.16;5091052;28;20027;-88
2023/01/15 01:39:07;;;;;;;4.55;3.17;;;;;;;7.17;72.16;101470.22;5090181;28;20020;-88
2023/01/15 01:41:33;;;;;;;6.53;3.22;;;;;;;7.06;71.73;101456.56;5072585;28;20020;-89
2023/01/15 01:44:03;;;;;;;3.53;2.47;;;;;;;7.13;72.11;101474.00;5091025;28;20020;-88
2023/01/15 01:46:31;;;;;;;3.75;2.50;;;;;;;7.05;71.80;101473.56;5090305;28;20128;-88
2023/01/15 01:49:13;;;;;;;4.15;3.15;;;;;;;6.85;72.32;101465.75;5090347;28;20035;-88
2023/01/15 01:51:42;;;;;;;9.43;3.20;;;;;;;6.87;72.38;101463.84;5090256;28;20518;-88
2023/01/15 01:54:10;;;;;;;4.72;3.30;;;;;;;6.86;72.76;101478.13;5072366;28;20024;-88
2023/01/15 01:56:36;;;;;;;5.95;2.95;;;;;;;6.76;72.78;101471.56;5088910;28;20032;-88
2023/01/15 01:59:04;;;;;;;8.63;3.72;;;;;;;6.64;73.26;101456.13;5091839;28;20042;-90
2023/01/15 02:01:30;;;;;;;4.80;2.92;;;;;;;6.58;73.12;101466.22;5072190;28;20038;-88
2023/01/15 02:03:56;;;;;;;3.20;2.22;;;;;;;6.58;73.37;101463.53;5090090;28;20031;-90
2023/01/15 02:06:24;;;;;;;6.55;3.65;;;;;;;6.51;73.62;101466.63;5072314;28;20070;-88
2023/01/15 02:08:50;;;;;;;5.40;2.72;;;;;;;6.45;73.92;101465.09;5091059;28;20679;-89
2023/01/15 02:11:18;;;;;;;5.07;3.28;;;;;;;6.37;74.15;101469.97;5089242;28;20034;-88
2023/01/15 02:14:02;;;;;;;48.25;17.88;;;;;;;6.29;74.89;101474.84;5090410;28;20064;-88
2023/01/15 02:17:06;;;;;;;8.70;4.20;;;;;;;6.11;75.34;101465.09;5091764;28;20036;-88
2023/01/15 02:20:02;;;;;;;4.72;3.22;;;;;;;6.07;75.85;101468.84;4999410;28;20026;-89
2023/01/15 02:23:04;;;;;;;3.97;2.95;;;;;;;6.07;76.63;101468.84;4989502;28;20867;-88
2023/01/15 02:25:40;;;;;;;5.32;3.22;;;;;;;6.02;77.05;101468.22;4988737;28;20034;-88
2023/01/15 02:28:12;;;;;;;8.63;4.20;;;;;;;5.90;77.05;101452.81;4975624;28;20050;-87
2023/01/15 02:30:42;;;;;;;4.65;3.00;;;;;;;5.95;77.54;101469.44;4993053;28;20034;-88
2023/01/15 02:33:14;;;;;;;3.53;2.70;;;;;;;5.87;77.68;101452.94;4989021;28;20034;-88
2023/01/15 02:35:47;;;;;;;3.55;2.75;;;;;;;5.91;77.78;101457.19;4990570;28;20034;-87
2023/01/15 02:38:17;;;;;;;3.95;3.25;;;;;;;5.95;77.65;101450.75;4993039;28;20426;-89
2023/01/15 02:40:44;;;;;;;4.82;3.25;;;;;;;5.94;77.45;101452.56;4992232;28;20093;-88
2023/01/15 02:43:13;;;;;;;6.25;3.95;;;;;;;5.98;76.89;101463.97;4992104;28;20069;-88
2023/01/15 02:45:42;;;;;;;7.05;3.08;;;;;;;5.86;77.02;101461.88;4992124;28;20041;-89
2023/01/15 02:48:11;;;;;;;11.38;2.30;;;;;;;5.85;76.62;101454.78;4992406;28;20133;-86
2023/01/15 02:50:42;;;;;;;3.63;2.20;;;;;;;5.77;76.94;101463.16;4992277;28;20030;-89
2023/01/15 02:53:13;;;;;;;3.22;2.38;;;;;;;5.67;76.43;101453.00;5029203;28;20097;-87
2023/01/15 02:55:45;;;;;;;3.30;2.58;;;;;;;5.62;76.62;101463.03;5094118;28;20024;-88
2023/01/15 02:58:15;;;;;;;;;;;;;;;5.70;76.95;101466.19;5076379;28;20032;-86
2023/01/15 03:00:44;;;;;;;5.50;3.35;;;;;;;5.68;77.23;101457.41;5094568;28;19916;-87
2023/01/15 03:03:57;;;;;;;4.85;2.63;;;;;;;5.82;77.46;101466.47;5096126;28;20055;-86
2023/01/15 03:06:47;;;;;;;8.70;2.43;;;;;;;5.89;77.11;101440.38;5095324;28;20031;-89
2023/01/15 03:09:14;;;;;;;6.63;2.30;;;;;;;5.94;76.49;101441.88;5093890;28;20066;-89
2023/01/15 03:11:48;;;;;;;3.50;2.88;;;;;;;6.13;76.17;101457.84;5093835;28;20031;-88
2023/01/15 03:14:23;;;;;;;6.95;3.53;;;;;;;6.18;75.80;101452.28;5094181;28;20107;-88
2023/01/15 03:16:55;;;;;;;8.90;2.80;;;;;;;6.21;75.52;101439.63;5094000;28;20395;-89
2023/01/15 03:19:35;;;;;;;4.72;2.42;;;;;;;6.25;74.80;101427.84;5093957;28;20030;-89
2023/01/15 03:22:24;;;;;;;4.75;2.72;;;;;;;6.34;74.42;101440.75;5093024;28;20043;-89
2023/01/15 03:25:01;;;;;;;9.68;2.53;;;;;;;6.31;73.79;101432.88;5096441;28;20039;-89
2023/01/15 03:27:27;;;;;;;3.35;2.50;;;;;;;6.31;73.31;101432.03;5102086;28;20027;-88
2023/01/15 03:29:59;;;;;;;6.35;2.20;;;;;;;6.22;73.89;101437.81;5095254;28;20089;-88
2023/01/15 03:32:25;;;;;;;;;;;;;;;6.33;73.83;101451.53;5095669;28;20016;-88
2023/01/15 03:34:53;;;;;;;5.10;2.83;;;;;;;6.12;73.79;101436.56;5073403;28;19921;-88
2023/01/15 03:37:20;;;;;;;9.30;3.05;;;;;;;6.14;73.54;101432.03;5077012;28;20056;-88
2023/01/15 03:39:46;;;;;;;3.95;2.60;;;;;;;6.15;73.28;101447.94;5079430;28;20036;-88
2023/01/15 03:42:31;;;;;;;4.90;2.58;;;;;;;6.12;73.19;101439.22;5076459;28;20043;-88
2023/01/15 03:45:09;;;;;;;7.88;2.90;;;;;;;6.22;73.20;101457.41;5073606;28;20100;-88
2023/01/15 03:47:41;;;;;;;13.98;4.32;;;;;;;6.19;73.16;101443.31;5055573;28;20052;-88
2023/01/15 03:50:43;;;;;;;9.88;3.17;;;;;;;6.30;72.80;101457.88;5051376;28;20605;-88
2023/01/15 03:53:18;;;;;;;8.48;3.45;;;;;;;6.23;72.97;101432.44;5050018;28;20103;-88
2023/01/15 03:55:46;;;;;;;5.53;2.70;;;;;;;6.46;72.32;101464.16;5032947;28;20060;-89
2023/01/15 03:58:19;;;;;;;13.85;3.70;;;;;;;6.52;72.34;101455.84;5050215;28;20182;-88
2023/01/15 04:00:50;;;;;;;;;;;;;;;6.68;71.99;101463.06;5050478;28;20033;-89
2023/01/15 04:03:18;;;;;;;4.32;2.65;;;;;;;6.72;72.18;101451.28;5033100;28;20073;-88
2023/01/15 04:05:44;;;;;;;3.60;2.72;;;;;;;6.76;71.60;101466.22;5049844;28;20033;-89
2023/01/15 04:08:12;;;;;;;4.32;2.72;;;;;;;6.84;71.02;101470.22;5050296;28;20033;-89
2023/01/15 04:10:48;;;;;;;4.32;2.28;;;;;;;6.75;70.64;101470.69;5049637;28;20048;-89
2023/01/15 04:13:14;;;;;;;4.78;3.22;;;;;;;6.69;70.11;101465.66;5067244;28;20075;-90
2023/01/15 04:15:39;;;;;;;3.90;3.00;;;;;;;6.56;70.57;101449.41;5078760;28;20072;-88
2023/01/15 04:18:05;;;;;;;4.22;2.80;;;;;;;6.68;70.72;101457.72;5074194;28;20193;-88
2023/01/15 04:20:30;;;;;;;13.55;4.40;;;;;;;6.71;71.00;101453.06;5092414;28;20020;-89
2023/01/15 04:22:55;;;;;;;5.10;3.40;;;;;;;6.77;70.81;101459.91;5092248;28;20032;-88
2023/01/15 04:25:21;;;;;;;4.22;2.95;;;;;;;6.86;70.88;101464.78;5092826;28;20089;-88
2023/01/15 04:27:46;;;;;;;5.65;4.00;;;;;;;6.94;70.54;101478.63;5093867;28;20457;-88
2023/01/15 04:30:12;;;;;;;7.22;4.90;;;;;;;6.80;70.66;101441.03;5093201;28;20515;-88
2023/01/15 04:32:37;;;;;;;7.68;4.78;;;;;;;6.62;71.09;101458.91;5092652;28;20527;-88
2023/01/15 04:35:03;;;;;;;7.10;5.18;;;;;;;6.77;71.96;101467.94;5097649;28;20020;-88
2023/01/15 04:37:28;;;;;;;11.05;5.53;;;;;;;6.74;71.92;101463.59;5091234;28;20036;-87
2023/01/15 04:39:54;;;;;;;8.10;5.63;;;;;;;6.67;71.93;101440.81;5091504;28;20024;-88
2023/01/15 04:45:04;;;;;;;14.70;6.50;;;;;;;6.79;72.15;101466.91;5097713;28;20042;-89
2023/01/15 04:47:30;;;;;;;11.43;5.75;;;;;;;6.72;72.51;101465.50;5095687;28;20103;-89
2023/01/15 04:49:55;;;;;;;12.05;6.13;;;;;;;6.79;72.59;101466.06;5069333;28;20044;-87
2023/01/15 04:52:21;;;;;;;13.57;6.63;;;;;;;6.79;73.05;101468.72;5052478;28;20055;-89
2023/01/15 04:54:46;;;;;;;9.23;6.28;;;;;;;6.82;73.04;101471.25;5052237;28;20028;-90
2023/01/15 04:57:12;;;;;;;7.93;5.10;;;;;;;6.78;72.83;101480.34;5068790;28;20434;-88
2023/01/15 04:59:37;;;;;;;6.70;4.85;;;;;;;6.59;72.20;101469.75;5051673;28;20488;-87
2023/01/15 05:02:03;;;;;;;10.80;5.70;;;;;;;6.60;72.99;101481.31;5070858;28;20033;-87
2023/01/15 05:04:28;;;;;;;9.60;5.75;;;;;;;6.56;72.84;101492.16;5075725;28;20056;-87
2023/01/15 05:06:53;;;;;;;11.02;5.65;;;;;;;6.38;73.42;101469.06;5076349;28;20527;-87
2023/01/15 05:09:19;;;;;;;7.55;5.30;;;;;;;6.34;72.92;101469.25;5051631;28;20048;-88
2023/01/15 05:11:44;;;;;;;8.80;6.20;;;;;;;6.49;73.39;101503.22;5051742;28;20049;-86
2023/01/15 05:14:10;;;;;;;11.50;7.10;;;;;;;6.42;73.20;101489.31;5052425;28;20519;-88
2023/01/15 05:16:37;;;;;;;14.80;6.90;;;;;;;6.40;73.20;101491.19;5054540;28;20029;-87
2023/01/15 05:19:03;;;;;;;11.18;6.43;;;;;;;6.47;73.67;101507.78;5054817;28;20047;-87
2023/01/15 05:21:35;;;;;;;10.02;6.63;;;;;;;6.51;73.48;101504.88;5069984;28;20124;-88
2023/01/15 05:24:03;;;;;;;8.77;5.78;;;;;;;6.36;73.31;101497.63;5067657;28;20190;-89
2023/01/15 05:26:31;;;;;;;12.02;6.47;;;;;;;6.35;73.72;101514.63;5067795;28;20415;-88
2023/01/15 05:28:58;;;;;;;14.07;6.03;;;;;;;6.27;73.72;101514.13;5050657;28;20044;-88
2023/01/15 05:31:25;;;;;;;12.95;6.10;;;;;;;6.19;74.50;101505.63;5068127;28;20029;-89
2023/01/15 05:33:52;;;;;;;11.15;6.40;;;;;;;6.10;74.46;101486.50;5067746;28;20132;-88
2023/01/15 05:36:20;;;;;;;13.52;5.35;;;;;;;6.10;74.18;101503.41;5051023;28;20060;-88
2023/01/15 05:38:46;;;;;;;10.70;5.60;;;;;;;6.06;74.47;101507.16;5073941;28;20044;-88
2023/01/15 05:44:02;;;;;;;9.18;5.30;;;;;;;6.07;74.13;101500.88;5049274;28;20063;-91
2023/01/15 05:46:28;;;;;;;8.60;5.20;;;;;;;6.11;74.08;101513.16;5050448;28;20036;-92
2023/01/15 05:48:54;;;;;;;8.77;5.75;;;;;;;5.96;74.41;101492.53;5027443;28;20076;-94
2023/01/15 05:51:19;;;;;;;9.10;4.93;;;;;;;5.85;74.51;101482.38;5016682;28;20099;-91
2023/01/15 05:53:45;;;;;;;10.40;5.35;;;;;;;6.00;74.77;101507.47;5024970;28;20030;-89
2023/01/15 05:56:11;;;;;;;9.00;5.20;;;;;;;6.01;74.64;101514.53;5042064;28;20044;-90
2023/01/15 05:58:37;;;;;;;10.25;5.00;;;;;;;5.95;75.12;101509.50;5051477;28;20033;-86
2023/01/15 06:01:07;;;;;;;7.93;5.38;;;;;;;5.91;74.92;101502.56;5043870;28;20041;-86
2023/01/15 06:03:33;;;;;;;8.80;5.65;;;;;;;5.82;74.84;101501.16;5029814;28;20363;-85
2023/01/15 06:05:58;;;;;;;7.13;4.93;;;;;;;5.74;75.52;101494.47;5012088;28;20029;-87
2023/01/15 06:08:23;;;;;;;12.68;6.18;;;;;;;5.74;75.60;101500.69;5028649;28;20526;-90
2023/01/15 06:10:49;;;;;;;8.10;5.22;;;;;;;5.72;75.86;101497.19;5027854;28;20043;-87
2023/01/15 06:13:16;;;;;;;8.80;5.47;;;;;;;5.80;75.75;101510.19;5028503;28;20045;-87
2023/01/15 06:15:42;;;;;;;27.27;6.53;;;;;;;5.85;76.28;101513.50;4988755;28;20038;-87
2023/01/15 06:18:08;;;;;;;9.57;5.88;;;;;;;5.85;76.11;101524.19;4989385;28;20038;-87
2023/01/15 06:20:37;;;;;;;15.32;6.57;;;;;;;5.76;76.25;101497.94;5005431;28;20041;-88
2023/01/15 06:23:03;;;;;;;11.30;5.82;;;;;;;5.85;76.17;101500.16;5031995;28;20086;-87
2023/01/15 06:25:28;;;;;;;13.32;6.10;;;;;;;5.92;76.49;101501.63;5048984;28;20045;-89
2023/01/15 06:27:54;;;;;;;12.05;6.85;;;;;;;6.08;76.00;101509.78;5032277;28;20502;-87
2023/01/15 06:30:19;;;;;;;11.13;5.78;;;;;;;6.13;75.68;101503.25;5049504;28;20048;-88
2023/01/15 06:32:45;;;;;;;16.38;6.90;;;;;;;6.22;75.66;101502.81;5031633;28;20041;-87
2023/01/15 06:35:11;;;;;;;18.30;6.97;;;;;;;6.27;75.33;101516.78;5047615;28;20045;-90
2023/01/15 06:37:37;;;;;;;11.15;6.90;;;;;;;6.36;74.73;101516.31;5047628;28;20033;-87
2023/01/15 06:40:03;;;;;;;14.80;7.43;;;;;;;6.33;74.98;101500.44;5047349;28;20408;-87
2023/01/15 06:47:57;;;;;;;20.35;9.88;;;;;;;6.52;75.07;101487.91;5090308;28;20079;-88
2023/01/15 06:50:24;;;;;;;23.02;8.43;;;;;;;6.57;74.27;101493.88;5096103;28;20110;-89
2023/01/15 06:52:50;;;;;;;13.95;8.45;;;;;;;6.64;74.47;101498.91;5090990;28;20066;-88
2023/01/15 06:55:17;;;;;;;23.60;8.93;;;;;;;6.48;74.93;101490.81;5090340;28;20032;-87
2023/01/15 06:57:43;;;;;;;14.88;7.32;;;;;;;6.75;74.36;101504.59;5090722;28;20047;-90
2023/01/15 07:00:10;;;;;;;15.15;8.05;;;;;;;6.78;74.58;101502.63;5093424;28;20044;-88
2023/01/15 07:02:35;;;;;;;17.13;8.48;;;;;;;6.87;73.84;101494.13;5105492;28;20074;-88
2023/01/15 07:05:01;;;;;;;19.30;6.95;;;;;;;7.02;73.54;101500.47;5110446;28;20062;-90
2023/01/15 07:07:27;;;;;;;12.32;7.25;;;;;;;6.99;73.07;101489.94;5110162;28;20020;-86
2023/01/15 07:09:53;;;;;;;16.95;7.32;;;;;;;7.14;73.19;101510.50;5110189;28;20036;-85
2023/01/15 07:12:19;;;;;;;10.73;6.50;;;;;;;7.19;73.10;101508.44;5110137;28;20519;-84
2023/01/15 07:14:44;;;;;;;15.07;7.35;;;;;;;7.36;72.83;101511.09;5110288;28;20064;-86
2023/01/15 07:17:10;;;;;;;12.23;6.32;;;;;;;7.35;71.95;101498.66;5110861;28;20035;-87
2023/01/15 07:19:36;;;;;;;10.68;6.32;;;;;;;7.39;71.62;101512.75;5110382;28;20038;-86
2023/01/15 07:22:01;;;;;;;10.13;6.55;;;;;;;7.35;71.26;101504.00;5113285;28;20111;-87
2023/01/15 07:24:27;;;;;;;11.20;7.07;;;;;;;7.48;71.19;101521.16;5114309;28;20565;-86
2023/01/15 07:26:52;;;;;;;26.20;7.43;;;;;;;7.39;70.95;101507.38;5115018;28;20019;-85
2023/01/15 07:29:18;;;;;;;15.85;6.50;;;;;;;7.33;70.95;101500.56;5114545;28;20513;-86
2023/01/15 07:31:43;;;;;;;15.70;6.15;;;;;;;7.30;71.09;101511.44;5115550;28;20024;-87
2023/01/15 07:34:09;;;;;;;22.70;6.45;;;;;;;7.26;71.35;101506.31;5117422;28;20038;-89
2023/01/15 07:36:35;;;;;;;10.30;5.78;;;;;;;7.19;71.02;101496.88;5116402;28;20030;-91
2023/01/15 07:39:03;;;;;;;12.35;6.60;;;;;;;7.11;71.12;101508.00;5097300;28;20024;-89
2023/01/15 07:49:45;;;;;;;18.40;6.88;;;;;;;7.27;71.46;101511.59;5133053;28;20035;-88
2023/01/15 07:52:16;;;;;;;27.13;7.80;;;;;;;7.27;71.32;101522.31;5138367;28;20051;-87
2023/01/15 07:54:42;;;;;;;15.68;6.68;;;;;;;7.30;71.99;101515.91;5129205;28;20028;-88
2023/01/15 07:57:08;;;;;;;14.10;5.40;;;;;;;7.33;71.59;101505.03;5116194;28;20027;-87
2023/01/15 07:59:34;;;;;;;11.13;6.57;;;;;;;7.40;71.55;101518.00;5116192;28;20020;-86
2023/01/15 08:01:59;;;;;;;16.17;6.80;;;;;;;7.31;71.96;101491.72;5114124;28;20054;-88
2023/01/15 08:04:25;;;;;;;14.57;7.20;;;;;;;7.46;71.54;101498.94;5119322;28;20065;-86
2023/01/15 08:06:50;;;;;;;18.67;8.13;;;;;;;7.56;71.49;101494.81;5095500;28;20497;-86
2023/01/15 08:09:16;;;;;;;15.13;6.88;;;;;;;7.73;71.17;101501.06;5117547;28;20035;-87
2023/01/15 08:17:09;;;;;;;17.00;9.02;;;;;;;7.89;69.90;101493.91;5111767;28;20076;-86
2023/01/15 08:19:34;;;;;;;11.38;7.57;;;;;;;8.03;69.49;101510.03;5112058;28;20035;-86
2023/01/15 08:22:00;;;;;;;23.58;8.32;;;;;;;8.05;69.22;101505.44;5095579;28;20019;-87
2023/01/15 08:24:27;;;;;;;21.60;8.65;;;;;;;8.22;69.55;101511.56;5094241;28;20030;-87
2023/01/15 08:26:53;;;;;;;12.82;8.23;;;;;;;8.32;69.29;101509.25;5112388;28;20031;-85
2023/01/15 08:29:18;;;;;;;28.13;8.68;;;;;;;8.37;68.99;101490.22;5113305;28;20036;-87
2023/01/15 08:31:44;;;;;;;13.57;7.80;;;;;;;8.38;68.41;101503.53;5111767;28;20030;-85
2023/01/15 08:34:09;;;;;;;13.95;7.15;;;;;;;8.50;67.59;101508.16;5110372;28;20474;-88
2023/01/15 08:36:36;;;;;;;14.35;8.23;;;;;;;8.62;66.96;101512.81;5111231;28;20024;-85
2023/01/15 08:39:02;;;;;;;23.75;8.20;;;;;;;8.74;66.51;101501.34;5110355;28;20110;-84
2023/01/15 08:41:27;;;;;;;28.25;9.73;;;;;;;8.66;66.91;101500.09;5110896;28;20165;-83
2023/01/15 08:43:53;;;;;;;15.10;9.40;;;;;;;8.81;67.02;101490.28;5111788;28;20035;-86
2023/01/15 08:46:18;;;;;;;14.23;7.80;;;;;;;8.98;67.01;101493.66;5113688;28;20023;-84
2023/01/15 08:48:44;;;;;;;13.77;7.88;;;;;;;9.07;66.56;101494.91;5110891;28;20109;-85
2023/01/15 08:51:11;;;;;;;19.50;8.48;;;;;;;9.15;65.21;101496.16;5110632;28;20040;-86
2023/01/15 08:53:37;;;;;;;25.17;9.07;;;;;;;9.18;65.57;101495.09;5110491;28;20023;-85
2023/01/15 08:56:03;;;;;;;24.15;9.90;;;;;;;9.18;65.40;101495.09;5092197;28;20023;-85
2023/01/15 08:58:31;;;;;;;19.00;9.60;;;;;;;9.15;65.33;101489.94;5110648;28;20533;-87
2023/01/15 09:01:04;;;;;;;18.80;10.57;;;;;;;9.22;65.80;101480.56;5110590;28;20024;-84
2023/01/15 09:03:29;;;;;;;25.67;9.38;;;;;;;9.31;65.17;101479.97;5110075;28;20085;-85
2023/01/15 09:05:58;;;;;;;18.55;9.35;;;;;;;9.44;64.82;101480.94;5110962;28;20638;-85
2023/01/15 09:08:23;;;;;;;32.38;11.48;;;;;;;9.49;64.46;101483.31;5093979;28;20056;-84
2023/01/15 09:10:49;;;;;;;20.83;10.13;;;;;;;9.46;64.19;101468.28;5110534;28;20846;-86
2023/01/15 09:13:14;;;;;;;24.13;10.35;;;;;;;9.41;64.17;101475.75;5113251;28;20045;-84
2023/01/15 09:15:40;;;;;;;26.17;10.90;;;;;;;9.30;64.12;101473.75;5113432;28;20105;-85
2023/01/15 09:18:05;;;;;;;56.97;11.60;;;;;;;9.25;64.12;101475.00;5113498;28;20106;-85
2023/01/15 09:20:31;;;;;;;16.63;10.20;;;;;;;9.07;64.69;101463.59;5113514;28;20027;-89
2023/01/15 09:22:56;;;;;;;15.52;8.25;;;;;;;8.98;64.97;101460.59;5093243;28;20053;-88
2023/01/15 09:25:56;;;;;;;24.45;9.35;;;;;;;9.05;65.30;101453.91;5069344;28;20117;-84
2023/01/15 09:28:22;;;;;;;13.43;7.35;;;;;;;9.18;65.01;101460.22;5068399;28;20054;-85
2023/01/15 09:30:48;;;;;;;13.35;7.57;;;;;;;9.27;65.59;101448.91;5011109;28;20104;-85
2023/01/15 09:33:14;;;;;;;14.15;7.32;;;;;;;9.23;65.06;101455.44;5009029;28;20044;-94
2023/01/15 09:35:41;;;;;;;15.15;7.88;;;;;;;9.22;65.16;101441.16;4992887;28;20148;-89
2023/01/15 09:38:10;;;;;;;16.60;8.50;;;;;;;9.37;64.32;101447.38;5009889;28;20485;-88
2023/01/15 09:40:48;;;;;;;34.85;17.13;;;;;;;9.34;64.31;101452.94;4993899;28;20066;-88
2023/01/15 09:43:46;;;;;;;16.25;8.60;;;;;;;9.35;64.52;101449.31;5008171;28;20149;-83
2023/01/15 09:46:22;;;;;;;41.33;9.95;;;;;;;9.27;64.16;101447.09;5007918;28;20045;-87
2023/01/15 09:49:11;;;;;;;28.40;8.95;;;;;;;9.17;65.21;101450.47;4995099;28;20034;-86
2023/01/15 09:52:02;;;;;;;28.55;9.45;;;;;;;9.07;65.04;101452.84;4987065;28;20054;-86
2023/01/15 09:54:44;;;;;;;23.60;8.48;;;;;;;9.05;65.36;101448.53;4987314;28;20042;-83
2023/01/15 09:57:15;;;;;;;13.82;8.32;;;;;;;8.98;65.34;101434.63;5013551;28;20092;-83
2023/01/15 09:59:45;;;;;;;24.80;9.52;;;;;;;9.03;65.64;101445.06;5026196;28;20049;-86
2023/01/15 10:02:34;;;;;;;26.63;10.20;;;;;;;9.07;66.03;101435.88;5030531;28;20076;-84
2023/01/15 10:05:17;;;;;;;19.92;9.85;;;;;;;9.14;65.88;101431.88;5046256;28;20024;-86
2023/01/15 10:08:10;;;;;;;18.52;8.18;;;;;;;9.13;65.48;101414.91;5046283;28;20055;-84
2023/01/15 10:10:45;;;;;;;27.92;7.97;;;;;;;9.06;65.59;101415.38;5097734;28;20394;-91
2023/01/15 10:13:24;;;;;;;18.02;7.50;;;;;;;9.02;65.05;101424.59;5094478;28;20177;-84
2023/01/15 10:15:50;;;;;;;20.27;8.00;;;;;;;8.83;66.27;101413.25;5093423;28;20021;-94
2023/01/15 10:18:19;;;;;;;12.70;8.07;;;;;;;8.69;66.77;101403.38;5074028;28;20039;-88
2023/01/15 10:20:58;;;;;;;26.08;8.30;;;;;;;8.73;66.55;101408.47;5073893;28;20035;-89
2023/01/15 10:23:34;;;;;;;125.18;14.02;;;;;;;8.63;67.46;101385.84;5105147;28;20020;-86
2023/01/15 10:26:16;;;;;;;16.60;7.88;;;;;;;8.66;67.50;101407.09;5059478;28;20040;-84
2023/01/15 10:28:47;;;;;;;19.60;6.77;;;;;;;8.64;67.25;101395.63;5110057;28;20023;-83
2023/01/15 10:31:19;;;;;;;40.05;10.90;;;;;;;8.61;67.40;101377.03;5052195;28;20044;-82
2023/01/15 10:34:10;;;;;;;12.40;7.55;;;;;;;8.74;67.59;101387.88;5096583;28;20028;-81
2023/01/15 10:36:43;;;;;;;12.57;7.60;;;;;;;8.88;67.49;101392.38;5125085;28;20034;-85
2023/01/15 10:39:31;;;;;;;18.67;8.70;;;;;;;8.75;68.06;101384.22;5128312;28;20110;-86
2023/01/15 10:42:28;;;;;;;41.33;9.63;;;;;;;8.82;68.04;101384.69;5111534;28;20030;-94
2023/01/15 10:45:17;;;;;;;24.40;9.02;;;;;;;8.97;67.81;101373.88;5110848;28;20081;-85
2023/01/15 10:47:47;;;;;;;23.65;8.95;;;;;;;8.89;67.23;101370.81;5110490;28;20023;-84
2023/01/15 10:50:18;;;;;;;38.55;10.80;;;;;;;8.80;67.19;101349.94;5106794;28;20123;-92
2023/01/15 10:53:21;;;;;;;15.90;8.30;;;;;;;8.86;67.80;101356.75;5100612;28;20055;-87
2023/01/15 10:55:51;;;;;;;14.35;8.38;;;;;;;8.92;67.20;101349.19;5095230;28;20030;-85
2023/01/15 10:58:23;;;;;;;14.23;8.73;;;;;;;8.90;67.68;101355.59;5115944;28;20044;-88
2023/01/15 11:00:55;;;;;;;26.98;9.20;;;;;;;8.80;67.56;101349.94;5097638;28;20095;-93
2023/01/15 11:03:28;;;;;;;;;;;;;;;8.92;67.02;101364.41;5067649;28;20195;-87
2023/01/15 11:05:53;;;;;;;15.35;8.82;;;;;;;8.64;67.90;101350.03;5070650;28;19982;-86
2023/01/15 11:08:31;;;;;;;17.17;10.05;;;;;;;8.66;68.37;101348.09;5059360;28;20065;-83
2023/01/15 11:11:02;;;;;;;18.90;10.18;;;;;;;8.66;67.88;101347.25;5049210;28;20037;-88
2023/01/15 11:21:41;;;;;;;23.90;10.80;;;;;;;8.95;67.95;101350.78;5080727;28;20077;-91
2023/01/15 11:24:14;;;;;;;18.65;10.75;;;;;;;8.96;67.83;101344.47;5087695;28;20071;-84
2023/01/15 11:26:39;;;;;;;76.30;12.23;;;;;;;8.97;67.72;101324.72;5080460;28;20036;-83
2023/01/15 11:29:14;;;;;;;30.13;10.90;;;;;;;9.21;67.87;101336.56;5074275;28;20447;-85
2023/01/15 11:31:41;;;;;;;57.40;11.68;;;;;;;9.16;67.72;101334.19;5078066;28;20092;-87
2023/01/15 11:34:20;;;;;;;38.22;12.05;;;;;;;9.26;67.40;101324.56;5102580;27;20043;-84
2023/01/15 11:36:46;;;;;;;37.03;9.43;;;;;;;9.18;67.11;101309.94;5102169;28;20024;-84
2023/01/15 11:39:26;;;;;;;28.85;10.40;;;;;;;9.21;66.07;101324.00;5106086;28;20092;-89
2023/01/15 11:50:51;;;;;;;19.85;11.05;;;;;;;9.19;66.55;101292.88;5115658;27;20045;-87
2023/01/15 11:53:24;;;;;;;31.20;12.50;;;;;;;9.15;66.44;101318.19;5097049;28;20031;-90
2023/01/15 11:55:53;;;;;;;23.38;11.88;;;;;;;8.99;67.23;101302.19;5132753;27;20023;-88
2023/01/15 11:58:19;;;;;;;46.95;13.55;;;;;;;8.97;67.14;101300.56;5138814;27;20016;-89
2023/01/15 12:00:49;;;;;;;27.17;12.45;;;;;;;8.98;67.78;101310.34;5138590;27;20046;-89
2023/01/15 12:03:21;;;;;;;22.48;10.90;;;;;;;8.90;68.02;101318.03;5142485;27;20028;-87
2023/01/15 12:05:55;;;;;;;31.27;13.05;;;;;;;8.89;68.53;101319.84;5141217;27;20061;-91
2023/01/15 12:08:46;;;;;;;18.13;10.50;;;;;;;8.95;68.23;101322.16;5143981;27;20090;-87
2023/01/15 12:11:50;;;;;;;26.08;11.90;;;;;;;8.83;68.38;101309.53;5137236;27;20561;-86
2023/01/15 12:14:34;;;;;;;27.08;12.48;;;;;;;8.70;68.70;101312.09;5032920;28;20165;-85
2023/01/15 12:17:18;;;;;;;38.13;13.13;;;;;;;8.82;69.34;101305.09;5029557;28;20196;-82
2023/01/15 12:20:33;;;;;;;41.72;13.98;;;;;;;8.96;69.01;101301.56;5027781;28;20529;-83
2023/01/15 12:23:24;;;;;;;38.33;15.27;;;;;;;8.90;68.87;101280.50;4946718;29;20042;-83
2023/01/15 12:26:02;;;;;;;26.42;12.98;;;;;;;9.08;68.31;101301.59;4951168;29;20653;-85
2023/01/15 12:28:33;;;;;;;33.45;13.13;;;;;;;8.91;68.64;101287.56;4941085;29;20027;-87